createdAt,value
2019-03-24T00:00:01.787Z,65.03
2019-03-24T00:02:30.358Z,64.48
2019-03-24T00:04:58.986Z,64.61
2019-03-24T00:07:27.498Z,64.46
2019-03-24T00:09:56.129Z,64.41
2019-03-24T00:12:24.827Z,64.27
2019-03-24T00:14:53.392Z,64.71
2019-03-24T00:17:22.044Z,64.24
2019-03-24T00:19:50.537Z,64.33
2019-03-24T00:22:19.685Z,64.77
2019-03-24T00:24:48.304Z,64.75
2019-03-24T00:27:16.808Z,64.73
2019-03-24T00:29:45.434Z,64.91
2019-03-24T00:32:14.039Z,65.55
2019-03-24T00:34:42.735Z,64.35
2019-03-24T00:37:11.206Z,64.41
2019-03-24T00:39:39.755Z,64.87
2019-03-24T00:42:08.354Z,64.79
2019-03-24T00:44:36.902Z,64.92
2019-03-24T00:47:05.476Z,65.01
2019-03-24T00:49:34.142Z,65.34
2019-03-24T00:52:02.718Z,65.03
2019-03-24T00:54:31.214Z,64.73
2019-03-24T00:56:59.855Z,64.80
2019-03-24T00:59:28.400Z,65.32
2019-03-24T01:01:57.010Z,65.64
2019-03-24T01:04:25.595Z,65.19
2019-03-24T01:06:54.625Z,66.97
2019-03-24T01:09:23.577Z,65.68
2019-03-24T01:11:52.171Z,64.72
2019-03-24T01:14:21.153Z,64.68
2019-03-24T01:16:49.680Z,64.83
2019-03-24T01:19:18.269Z,64.51
2019-03-24T01:21:46.907Z,64.52
2019-03-24T01:24:15.412Z,64.69
2019-03-24T01:26:43.935Z,64.90
2019-03-24T01:29:12.614Z,65.11
2019-03-24T01:31:41.480Z,65.40
2019-03-24T01:34:10.465Z,65.27
2019-03-24T01:36:39.284Z,65.28
2019-03-24T01:39:08.500Z,65.19
2019-03-24T01:41:37.025Z,65.20
2019-03-24T01:44:05.635Z,65.17
2019-03-24T01:46:34.222Z,64.50
2019-03-24T01:49:02.734Z,65.12
2019-03-24T01:51:31.316Z,65.17
2019-03-24T01:53:59.971Z,65.11
2019-03-24T01:56:28.482Z,64.80
2019-03-24T01:58:57.025Z,65.21
2019-03-24T02:01:25.757Z,64.81
2019-03-24T02:03:54.319Z,65.42
2019-03-24T02:06:22.836Z,65.42
2019-03-24T02:08:52.161Z,65.43
2019-03-24T02:11:20.884Z,65.49
2019-03-24T02:13:49.421Z,65.64
2019-03-24T02:16:18.046Z,65.80
2019-03-24T02:18:46.656Z,66.75
2019-03-24T02:21:15.246Z,65.25
2019-03-24T02:23:43.824Z,65.37
2019-03-24T02:26:12.307Z,65.40
2019-03-24T02:28:40.855Z,65.22
2019-03-24T02:31:09.371Z,64.98
2019-03-24T02:33:37.936Z,65.97
2019-03-24T02:36:06.454Z,66.18
2019-03-24T02:38:35.072Z,66.17
2019-03-24T02:41:03.723Z,66.09
2019-03-24T02:43:32.325Z,66.05
2019-03-24T02:46:00.875Z,65.91
2019-03-24T02:48:29.510Z,65.55
2019-03-24T02:50:58.011Z,65.59
2019-03-24T02:53:26.635Z,67.56
2019-03-24T02:55:55.210Z,65.98
2019-03-24T02:58:23.840Z,65.44
2019-03-24T03:00:53.245Z,65.44
2019-03-24T03:03:21.771Z,64.75
2019-03-24T03:05:50.615Z,65.31
2019-03-24T03:08:19.195Z,65.40
2019-03-24T03:10:47.791Z,65.32
2019-03-24T03:13:16.627Z,65.78
2019-03-24T03:15:45.226Z,66.21
2019-03-24T03:18:13.777Z,66.06
2019-03-24T03:20:42.373Z,65.81
2019-03-24T03:23:10.992Z,65.66
2019-03-24T03:25:39.653Z,65.81
2019-03-24T03:28:08.226Z,71.62
2019-03-24T03:30:36.860Z,66.14
2019-03-24T03:33:05.536Z,65.12
2019-03-24T03:35:34.110Z,65.26
2019-03-24T03:38:02.599Z,64.93
2019-03-24T03:40:31.405Z,65.58
2019-03-24T03:42:59.918Z,65.00
2019-03-24T03:45:29.398Z,64.77
2019-03-24T03:47:57.933Z,64.85
2019-03-24T03:50:26.565Z,64.83
2019-03-24T03:52:55.337Z,65.03
2019-03-24T03:55:24.316Z,64.27
2019-03-24T03:57:52.926Z,64.83
2019-03-24T04:00:24.487Z,64.52
2019-03-24T04:02:52.974Z,65.23
2019-03-24T04:05:21.417Z,64.96
2019-03-24T04:07:49.960Z,64.38
2019-03-24T04:10:18.534Z,64.22
2019-03-24T04:12:47.055Z,64.28
2019-03-24T04:15:15.656Z,64.06
2019-03-24T04:17:44.238Z,64.69
2019-03-24T04:20:12.945Z,64.32
2019-03-24T04:22:41.774Z,64.13
2019-03-24T04:25:10.487Z,63.88
2019-03-24T04:27:39.224Z,63.43
2019-03-24T04:30:08.287Z,62.97
2019-03-24T04:32:36.883Z,62.96
2019-03-24T04:35:07.473Z,63.47
2019-03-24T04:37:36.052Z,64.25
2019-03-24T04:40:06.544Z,63.97
2019-03-24T04:42:35.143Z,63.41
2019-03-24T04:45:03.925Z,63.52
2019-03-24T04:47:32.471Z,63.46
2019-03-24T04:50:00.981Z,63.47
2019-03-24T04:52:29.535Z,63.31
2019-03-24T04:54:58.046Z,63.04
2019-03-24T04:57:26.819Z,62.74
2019-03-24T04:59:56.323Z,62.95
2019-03-24T05:02:25.987Z,63.54
2019-03-24T05:04:54.488Z,63.66
2019-03-24T05:07:23.665Z,63.57
2019-03-24T05:09:54.437Z,63.37
2019-03-24T05:12:22.755Z,63.89
2019-03-24T05:14:51.267Z,64.83
2019-03-24T05:17:27.059Z,63.43
2019-03-24T05:19:50.178Z,63.48
2019-03-24T05:22:19.046Z,63.64
2019-03-24T05:24:47.567Z,63.93
2019-03-24T05:27:16.434Z,64.04
2019-03-24T05:29:45.048Z,64.31
2019-03-24T05:32:13.590Z,64.70
2019-03-24T05:34:42.070Z,65.12
2019-03-24T05:37:10.591Z,65.07
2019-03-24T05:39:39.227Z,65.40
2019-03-24T05:42:07.821Z,65.19
2019-03-24T05:44:36.439Z,65.09
2019-03-24T05:47:04.978Z,65.08
2019-03-24T05:49:35.039Z,67.46
2019-03-24T05:52:03.515Z,65.04
2019-03-24T05:54:32.040Z,63.87
2019-03-24T05:57:00.615Z,64.63
2019-03-24T05:59:29.253Z,64.88
2019-03-24T06:01:57.894Z,64.58
2019-03-24T06:04:27.023Z,64.96
2019-03-24T06:06:55.549Z,64.37
2019-03-24T06:09:24.094Z,65.02
2019-03-24T06:11:52.874Z,65.06
2019-03-24T06:14:21.448Z,65.01
2019-03-24T06:16:50.095Z,64.67
2019-03-24T06:19:18.664Z,64.74
2019-03-24T06:21:47.209Z,64.56
2019-03-24T06:24:15.664Z,65.63
2019-03-24T06:26:44.232Z,64.98
2019-03-24T06:29:12.855Z,64.60
2019-03-24T06:31:41.479Z,64.32
2019-03-24T06:34:09.997Z,64.36
2019-03-24T06:36:38.547Z,64.54
2019-03-24T06:39:08.253Z,64.83
2019-03-24T06:41:36.874Z,65.05
2019-03-24T06:44:05.504Z,65.45
2019-03-24T06:46:34.055Z,65.24
2019-03-24T06:49:02.555Z,64.91
2019-03-24T06:51:31.148Z,65.07
2019-03-24T06:53:59.785Z,64.76
2019-03-24T06:56:28.465Z,64.17
2019-03-24T06:58:56.980Z,65.71
2019-03-24T07:01:25.621Z,65.71
2019-03-24T07:03:54.142Z,57.38
2019-03-24T07:06:22.822Z,53.94
2019-03-24T07:08:51.409Z,55.29
2019-03-24T07:11:20.052Z,56.50
2019-03-24T07:13:48.754Z,58.51
2019-03-24T07:16:18.563Z,57.62
2019-03-24T07:18:47.348Z,57.30
2019-03-24T07:21:16.029Z,55.84
2019-03-24T07:23:44.616Z,54.75
2019-03-24T07:26:13.099Z,53.00
2019-03-24T07:28:41.675Z,52.34
2019-03-24T07:31:10.267Z,53.18
2019-03-24T07:33:39.206Z,53.00
2019-03-24T07:36:07.797Z,55.84
2019-03-24T07:38:36.383Z,52.97
2019-03-24T07:41:04.999Z,54.40
2019-03-24T07:43:33.536Z,53.17
2019-03-24T07:46:02.170Z,52.32
2019-03-24T07:48:30.815Z,53.15
2019-03-24T07:50:59.424Z,52.79
2019-03-24T07:53:27.958Z,52.05
2019-03-24T07:55:56.581Z,52.33
2019-03-24T07:58:25.365Z,51.77
2019-03-24T08:00:53.940Z,50.99
2019-03-24T08:03:22.575Z,50.95
2019-03-24T08:05:51.234Z,51.41
2019-03-24T08:08:19.855Z,51.47
2019-03-24T08:10:48.492Z,51.90
2019-03-24T08:13:17.076Z,50.93
2019-03-24T08:15:45.683Z,50.21
2019-03-24T08:18:14.316Z,50.69
2019-03-24T08:20:42.994Z,50.33
2019-03-24T08:23:11.589Z,50.16
2019-03-24T08:25:40.159Z,50.14
2019-03-24T08:28:08.684Z,50.47
2019-03-24T08:30:37.296Z,51.33
2019-03-24T08:33:05.945Z,51.22
2019-03-24T08:35:34.549Z,51.10
2019-03-24T08:38:03.178Z,51.14
2019-03-24T08:40:31.805Z,50.24
2019-03-24T08:43:00.704Z,50.48
2019-03-24T08:45:30.531Z,52.17
2019-03-24T08:47:59.850Z,50.29
2019-03-24T08:50:28.621Z,50.98
2019-03-24T08:52:57.510Z,50.60
2019-03-24T08:55:26.099Z,50.11
2019-03-24T08:57:54.743Z,50.22
2019-03-24T09:00:30.519Z,49.05
2019-03-24T09:02:53.678Z,48.89
2019-03-24T09:05:22.265Z,48.76
2019-03-24T09:07:50.865Z,48.72
2019-03-24T09:10:19.753Z,48.39
2019-03-24T09:12:48.356Z,48.32
2019-03-24T09:15:17.042Z,47.52
2019-03-24T09:17:45.695Z,47.98
2019-03-24T09:20:15.033Z,47.87
2019-03-24T09:22:43.676Z,48.61
2019-03-24T09:25:12.551Z,48.80
2019-03-24T09:27:41.234Z,48.39
2019-03-24T09:30:31.767Z,47.75
2019-03-24T09:33:00.496Z,46.34
2019-03-24T09:35:29.894Z,46.54
2019-03-24T09:37:58.730Z,46.93
2019-03-24T09:40:29.192Z,46.99
2019-03-24T09:43:00.429Z,47.03
2019-03-24T09:45:30.347Z,46.29
2019-03-24T09:47:59.169Z,45.72
2019-03-24T09:50:27.799Z,46.05
2019-03-24T09:52:56.506Z,46.13
2019-03-24T09:55:25.221Z,46.65
2019-03-24T09:57:53.823Z,45.00
2019-03-24T10:00:22.509Z,46.59
2019-03-24T10:02:51.414Z,46.59
2019-03-24T10:05:19.945Z,48.19
2019-03-24T10:07:48.578Z,46.46
2019-03-24T10:10:17.174Z,44.92
2019-03-24T10:12:45.844Z,43.99
2019-03-24T10:15:14.451Z,45.24
2019-03-24T10:17:43.422Z,45.29
2019-03-24T10:20:12.348Z,44.77
2019-03-24T10:22:40.959Z,45.03
2019-03-24T10:25:09.759Z,46.74
2019-03-24T10:27:38.481Z,44.41
2019-03-24T10:30:07.768Z,46.24
2019-03-24T10:32:36.366Z,45.59
2019-03-24T10:35:06.905Z,44.77
2019-03-24T10:37:35.658Z,44.22
2019-03-24T10:40:05.404Z,43.92
2019-03-24T10:42:33.981Z,43.38
2019-03-24T10:45:03.955Z,42.88
2019-03-24T10:47:33.226Z,42.86
2019-03-24T10:50:01.849Z,42.86
2019-03-24T10:52:30.444Z,43.83
2019-03-24T10:54:59.148Z,44.77
2019-03-24T10:57:27.746Z,46.38
2019-03-24T10:59:56.307Z,46.99
2019-03-24T11:02:24.822Z,46.38
2019-03-24T11:04:53.374Z,45.79
2019-03-24T11:07:21.968Z,44.61
2019-03-24T11:09:50.591Z,43.25
2019-03-24T11:12:19.217Z,44.55
2019-03-24T11:14:47.835Z,44.62
2019-03-24T11:17:16.327Z,43.41
2019-03-24T11:19:44.967Z,43.62
2019-03-24T11:22:13.502Z,44.47
2019-03-24T11:24:42.135Z,44.11
2019-03-24T11:27:10.720Z,42.09
2019-03-24T11:29:39.387Z,43.00
2019-03-24T11:32:08.029Z,42.65
2019-03-24T11:34:36.619Z,41.59
2019-03-24T11:37:05.252Z,41.49
2019-03-24T11:39:34.413Z,42.62
2019-03-24T11:42:03.085Z,42.43
2019-03-24T11:44:31.783Z,43.06
2019-03-24T11:47:00.328Z,42.68
2019-03-24T11:49:28.876Z,40.80
2019-03-24T11:51:57.468Z,41.25
2019-03-24T11:54:26.099Z,42.27
2019-03-24T11:56:54.690Z,41.43
2019-03-24T11:59:23.680Z,41.92
2019-03-24T12:01:52.318Z,40.68
2019-03-24T12:04:22.425Z,39.76
2019-03-24T12:06:51.016Z,39.41
2019-03-24T12:09:19.740Z,40.22
2019-03-24T12:11:48.294Z,40.17
2019-03-24T12:14:17.015Z,39.94
2019-03-24T12:16:45.607Z,40.86
2019-03-24T12:19:14.292Z,39.87
2019-03-24T12:21:42.854Z,40.51
2019-03-24T12:24:11.463Z,40.11
2019-03-24T12:26:39.994Z,40.71
2019-03-24T12:29:08.849Z,40.11
2019-03-24T12:31:37.478Z,39.16
2019-03-24T12:34:06.319Z,39.21
2019-03-24T12:36:35.627Z,38.64
2019-03-24T12:39:05.318Z,39.01
2019-03-24T12:41:33.955Z,37.76
2019-03-24T12:44:02.915Z,38.80
2019-03-24T12:46:31.550Z,40.29
2019-03-24T12:49:00.130Z,39.43
2019-03-24T12:51:28.640Z,38.23
2019-03-24T12:53:57.534Z,38.14
2019-03-24T12:56:26.140Z,39.42
2019-03-24T12:58:54.658Z,40.11
2019-03-24T13:01:23.422Z,39.86
2019-03-24T13:03:52.110Z,38.94
2019-03-24T13:06:20.804Z,38.94
2019-03-24T13:08:49.558Z,39.94
2019-03-24T13:11:18.158Z,38.99
2019-03-24T13:13:46.719Z,39.57
2019-03-24T13:16:15.241Z,39.93
2019-03-24T13:18:43.972Z,38.04
2019-03-24T13:21:12.633Z,38.95
2019-03-24T13:23:41.221Z,38.85
2019-03-24T13:26:09.930Z,39.89
2019-03-24T13:28:38.563Z,39.79
2019-03-24T13:31:07.187Z,40.56
2019-03-24T13:33:36.801Z,40.50
2019-03-24T13:36:07.177Z,39.22
2019-03-24T13:38:36.168Z,40.24
2019-03-24T13:41:04.755Z,40.08
2019-03-24T13:43:33.399Z,39.92
2019-03-24T13:46:01.895Z,40.45
2019-03-24T13:48:30.744Z,41.17
2019-03-24T13:50:59.331Z,40.70
2019-03-24T13:53:27.904Z,39.87
2019-03-24T13:55:56.690Z,39.21
2019-03-24T13:58:25.353Z,40.42
2019-03-24T14:00:53.998Z,39.94
2019-03-24T14:03:22.667Z,38.01
2019-03-24T14:05:51.345Z,38.97
2019-03-24T14:08:20.432Z,38.92
2019-03-24T14:10:49.097Z,39.71
2019-03-24T14:13:17.562Z,39.56
2019-03-24T14:15:46.158Z,37.76
2019-03-24T14:18:14.691Z,39.66
2019-03-24T14:20:44.070Z,39.25
2019-03-24T14:23:12.760Z,39.86
2019-03-24T14:25:41.546Z,40.62
2019-03-24T14:28:10.124Z,41.98
2019-03-24T14:30:41.028Z,40.84
2019-03-24T14:33:09.686Z,40.87
2019-03-24T14:35:38.239Z,42.07
2019-03-24T14:38:06.829Z,42.89
2019-03-24T14:40:35.461Z,41.09
2019-03-24T14:43:04.150Z,41.27
2019-03-24T14:45:32.808Z,41.77
2019-03-24T14:48:01.924Z,41.93
2019-03-24T14:50:30.607Z,41.97
2019-03-24T14:52:59.178Z,41.48
2019-03-24T14:55:27.835Z,41.38
2019-03-24T14:57:56.594Z,42.23
2019-03-24T15:00:36.471Z,41.17
2019-03-24T15:03:05.168Z,41.93
2019-03-24T15:05:33.758Z,42.52
2019-03-24T15:08:03.790Z,40.20
2019-03-24T15:10:32.444Z,42.96
2019-03-24T15:13:01.112Z,40.28
2019-03-24T15:15:29.733Z,42.07
2019-03-24T15:17:58.310Z,40.48
2019-03-24T15:20:26.887Z,41.09
2019-03-24T15:22:55.526Z,40.71
2019-03-24T15:25:24.116Z,40.41
2019-03-24T15:27:52.858Z,41.18
2019-03-24T15:30:21.514Z,40.19
2019-03-24T15:32:50.216Z,41.29
2019-03-24T15:35:18.818Z,41.47
2019-03-24T15:37:47.423Z,41.23
2019-03-24T15:40:16.310Z,41.15
2019-03-24T15:42:44.967Z,40.11
2019-03-24T15:45:13.652Z,40.50
2019-03-24T15:47:42.268Z,39.98
2019-03-24T15:50:11.276Z,41.18
2019-03-24T15:52:39.975Z,40.11
2019-03-24T15:55:08.859Z,40.20
2019-03-24T15:57:37.490Z,40.11
2019-03-24T16:00:08.564Z,40.16
2019-03-24T16:02:37.194Z,40.14
2019-03-24T16:05:07.026Z,39.05
2019-03-24T16:07:35.577Z,40.60
2019-03-24T16:10:06.679Z,41.06
2019-03-24T16:12:35.453Z,40.70
2019-03-24T16:15:07.905Z,41.41
2019-03-24T16:17:36.597Z,41.63
2019-03-24T16:20:07.631Z,41.51
2019-03-24T16:22:36.222Z,42.66
2019-03-24T16:25:07.039Z,41.95
2019-03-24T16:27:36.761Z,42.69
2019-03-24T16:30:07.250Z,42.82
2019-03-24T16:32:35.833Z,42.58
2019-03-24T16:35:05.646Z,43.57
2019-03-24T16:37:34.219Z,43.77
2019-03-24T16:40:02.846Z,45.07
2019-03-24T16:42:31.542Z,44.53
2019-03-24T16:45:00.415Z,43.96
2019-03-24T16:47:29.054Z,44.40
2019-03-24T16:49:57.667Z,44.61
2019-03-24T16:52:26.287Z,44.81
2019-03-24T16:54:54.954Z,45.64
2019-03-24T16:57:23.544Z,46.12
2019-03-24T16:59:52.308Z,46.47
2019-03-24T17:02:20.905Z,46.16
2019-03-24T17:04:49.488Z,47.90
2019-03-24T17:07:18.269Z,47.20
2019-03-24T17:09:46.865Z,46.91
2019-03-24T17:12:15.536Z,46.94
2019-03-24T17:14:44.167Z,46.83
2019-03-24T17:17:13.038Z,45.86
2019-03-24T17:19:41.908Z,46.07
2019-03-24T17:22:10.462Z,48.69
2019-03-24T17:24:39.002Z,46.47
2019-03-24T17:27:07.718Z,45.63
2019-03-24T17:29:36.307Z,45.63
2019-03-24T17:32:04.955Z,45.78
2019-03-24T17:34:33.617Z,46.36
2019-03-24T17:37:02.223Z,45.52
2019-03-24T17:39:30.862Z,46.70
2019-03-24T17:41:59.536Z,46.76
2019-03-24T17:44:28.079Z,47.66
2019-03-24T17:46:56.707Z,46.05
2019-03-24T17:49:25.384Z,46.55
2019-03-24T17:52:00.719Z,46.62
2019-03-24T17:54:24.229Z,46.96
2019-03-24T17:56:52.789Z,48.21
2019-03-24T17:59:21.325Z,47.86
2019-03-24T18:01:49.961Z,48.36
2019-03-24T18:04:24.837Z,48.16
2019-03-24T18:06:48.968Z,47.35
2019-03-24T18:09:17.545Z,46.83
2019-03-24T18:11:46.132Z,47.00
2019-03-24T18:14:15.043Z,46.15
2019-03-24T18:16:43.681Z,45.43
2019-03-24T18:19:13.257Z,46.24
2019-03-24T18:21:41.921Z,45.46
2019-03-24T18:24:10.482Z,45.09
2019-03-24T18:26:39.079Z,46.46
2019-03-24T18:29:07.904Z,46.45
2019-03-24T18:31:36.535Z,48.30
2019-03-24T18:34:05.187Z,46.80
2019-03-24T18:36:33.847Z,45.04
2019-03-24T18:39:02.369Z,47.72
2019-03-24T18:41:30.953Z,46.81
2019-03-24T18:43:59.727Z,47.09
2019-03-24T18:46:28.423Z,47.01
2019-03-24T18:48:58.349Z,46.53
2019-03-24T18:51:27.015Z,47.49
2019-03-24T18:53:55.719Z,48.26
2019-03-24T18:56:24.278Z,48.16
2019-03-24T18:58:52.810Z,48.77
2019-03-24T19:01:21.353Z,50.08
2019-03-24T19:03:50.074Z,54.68
2019-03-24T19:06:18.648Z,53.03
2019-03-24T19:08:47.271Z,50.46
2019-03-24T19:11:15.877Z,50.44
2019-03-24T19:16:30.117Z,50.50
2019-03-24T19:18:58.631Z,51.21
2019-03-24T19:21:27.187Z,52.64
2019-03-24T19:23:56.006Z,51.14
2019-03-24T19:26:24.657Z,51.36
2019-03-24T19:28:53.303Z,52.64
2019-03-24T19:31:21.916Z,51.71
2019-03-24T19:33:50.519Z,53.42
2019-03-24T19:38:59.822Z,55.06
2019-03-24T19:41:28.477Z,54.09
2019-03-24T19:43:57.053Z,51.76
2019-03-24T19:46:27.566Z,54.60
2019-03-24T19:48:56.660Z,53.35
2019-03-24T19:51:25.307Z,52.50
2019-03-24T19:53:53.966Z,52.90
2019-03-24T19:56:22.926Z,52.96
2019-03-24T19:58:51.556Z,53.03
2019-03-24T20:01:20.214Z,53.55
2019-03-24T20:03:48.707Z,53.44
2019-03-24T20:06:17.274Z,53.63
2019-03-24T20:08:46.071Z,55.12
2019-03-24T20:11:14.848Z,55.12
2019-03-24T20:13:43.442Z,57.33
2019-03-24T20:16:12.411Z,56.46
2019-03-24T20:18:40.932Z,54.41
2019-03-24T20:21:09.570Z,55.31
2019-03-24T20:23:38.082Z,57.00
2019-03-24T20:26:06.698Z,56.66
2019-03-24T20:28:35.286Z,55.00
2019-03-24T20:31:03.908Z,57.58
2019-03-24T20:33:32.689Z,58.99
2019-03-24T20:36:01.229Z,56.63
2019-03-24T20:38:29.864Z,56.13
2019-03-24T20:40:58.409Z,56.76
2019-03-24T20:43:27.830Z,56.77
2019-03-24T20:45:56.516Z,56.52
2019-03-24T20:48:25.182Z,59.46
2019-03-24T20:50:53.801Z,58.35
2019-03-24T20:53:22.354Z,56.00
2019-03-24T20:55:50.931Z,55.35
2019-03-24T20:58:19.474Z,55.23
2019-03-24T21:00:48.082Z,56.45
2019-03-24T21:03:16.691Z,55.97
2019-03-24T21:05:45.279Z,57.25
2019-03-24T21:08:13.838Z,57.34
2019-03-24T21:10:42.533Z,58.18
2019-03-24T21:13:11.276Z,57.82
2019-03-24T21:15:39.915Z,58.14
2019-03-24T21:18:08.521Z,57.46
2019-03-24T21:20:37.161Z,57.04
2019-03-24T21:23:06.637Z,57.38
2019-03-24T21:25:35.278Z,59.65
2019-03-24T21:28:04.110Z,58.00
2019-03-24T21:30:37.775Z,57.59
2019-03-24T21:33:06.519Z,57.18
2019-03-24T21:35:35.120Z,56.89
2019-03-24T21:38:03.944Z,56.45
2019-03-24T21:40:32.512Z,57.27
2019-03-24T21:43:01.078Z,57.77
2019-03-24T21:45:29.906Z,57.51
2019-03-24T21:47:58.677Z,58.12
2019-03-24T21:50:27.308Z,58.68
2019-03-24T21:52:55.771Z,57.92
2019-03-24T21:55:25.040Z,56.85
2019-03-24T21:57:57.688Z,57.63
2019-03-24T22:00:32.570Z,57.62
2019-03-24T22:03:01.116Z,57.62
2019-03-24T22:05:30.303Z,58.28
2019-03-24T22:07:58.910Z,57.14
2019-03-24T22:10:27.520Z,56.79
2019-03-24T22:12:56.123Z,57.38
2019-03-24T22:15:24.891Z,56.88
2019-03-24T22:17:53.440Z,57.85
2019-03-24T22:20:22.089Z,57.56
2019-03-24T22:22:50.835Z,58.11
2019-03-24T22:25:19.454Z,58.94
2019-03-24T22:27:48.079Z,58.06
2019-03-24T22:30:16.954Z,56.48
2019-03-24T22:32:45.487Z,58.36
2019-03-24T22:35:14.131Z,62.86
2019-03-24T22:37:42.641Z,60.36
2019-03-24T22:40:11.531Z,58.28
2019-03-24T22:42:40.060Z,57.00
2019-03-24T22:45:08.992Z,57.64
2019-03-24T22:47:37.677Z,58.22
2019-03-24T22:50:08.118Z,58.66
2019-03-24T22:52:37.127Z,58.39
2019-03-24T22:55:10.056Z,58.62
2019-03-24T22:57:38.795Z,58.28
2019-03-24T23:00:11.926Z,58.26
2019-03-24T23:02:40.460Z,57.29
2019-03-24T23:05:09.309Z,58.19
2019-03-24T23:07:37.850Z,58.99
2019-03-24T23:10:06.523Z,61.45
2019-03-24T23:12:35.148Z,61.02
2019-03-24T23:15:05.337Z,59.13
2019-03-24T23:17:33.959Z,58.66
2019-03-24T23:20:02.470Z,58.82
2019-03-24T23:22:31.788Z,59.06
2019-03-24T23:25:00.360Z,59.92
2019-03-24T23:27:29.114Z,60.65
2019-03-24T23:29:57.632Z,60.67
2019-03-24T23:32:26.194Z,60.37
2019-03-24T23:34:54.825Z,61.78
2019-03-24T23:37:23.382Z,61.92
2019-03-24T23:39:51.959Z,61.80
2019-03-24T23:42:20.480Z,61.55
2019-03-24T23:44:49.110Z,61.76
2019-03-24T23:47:17.743Z,63.64
2019-03-24T23:49:46.378Z,61.45
2019-03-24T23:52:14.925Z,61.32
2019-03-24T23:54:43.439Z,62.29
2019-03-24T23:57:12.092Z,63.16
2019-03-24T23:59:40.730Z,63.82
